Time;durP1;ratioP1;P1;durP2;ratioP2;P2;SDS_P1;SDS_P2;PMS_P1;PMS_P2;Temp;Humidity;BMP_temperature;BMP_pressure;BME280_temperature;BME280_humidity;BME280_pressure;Samples;Min_cycle;Max_cycle;Signal;HPM_P1;HPM_P2
2022/08/01 00:01:55;;;;;;;2.70;2.17;;;;;;;;;;5015068;28;20450;-81
2022/08/01 00:04:23;;;;;;;1.90;1.60;;;;;;;;;;5015669;28;20465;-77
2022/08/01 00:06:50;;;;;;;3.07;1.83;;;;;;;;;;5016594;28;20463;-76
2022/08/01 00:09:18;;;;;;;4.20;2.20;;;;;;;;;;5009019;28;20450;-77
2022/08/01 00:11:45;;;;;;;2.50;2.00;;;;;;;;;;5000914;28;20443;-82
2022/08/01 00:14:12;;;;;;;4.67;2.40;;;;;;;;;;4997198;28;20483;-82
2022/08/01 00:16:39;;;;;;;2.93;1.77;;;;;;;;;;4994661;28;20463;-80
2022/08/01 00:19:06;;;;;;;3.03;1.87;;;;;;;;;;4994652;28;20451;-76
2022/08/01 00:21:35;;;;;;;2.90;1.90;;;;;;;;;;4995146;28;20432;-76
2022/08/01 00:24:02;;;;;;;3.93;2.00;;;;;;;;;;4995225;28;20799;-79
2022/08/01 00:26:29;;;;;;;3.40;1.87;;;;;;;;;;5009180;28;20574;-80
2022/08/01 00:28:57;;;;;;;1.80;1.70;;;;;;;;;;5016069;28;20525;-78
2022/08/01 00:31:24;;;;;;;1.80;1.70;;;;;;;;;;5009521;28;20446;-79
2022/08/01 00:33:51;;;;;;;1.83;1.70;;;;;;;;;;4999806;28;20479;-78
2022/08/01 00:36:18;;;;;;;3.03;1.90;;;;;;;;;;4996882;28;20464;-83
2022/08/01 00:38:47;;;;;;;2.20;1.90;;;;;;;;;;4994518;28;20463;-82
2022/08/01 00:41:14;;;;;;;2.80;2.23;;;;;;;;;;4994211;28;20793;-81
2022/08/01 00:43:41;;;;;;;2.90;2.03;;;;;;;;;;4994338;28;20551;-78
2022/08/01 00:46:08;;;;;;;4.70;2.20;;;;;;;;;;4994635;28;20460;-83
2022/08/01 00:48:36;;;;;;;2.37;1.73;;;;;;;;;;4994989;28;20828;-79
2022/08/01 00:51:03;;;;;;;3.37;2.43;;;;;;;;;;4996390;28;20454;-76
2022/08/01 00:53:30;;;;;;;2.20;2.00;;;;;;;;;;4997200;28;20489;-82
2022/08/01 00:55:59;;;;;;;2.73;2.03;;;;;;;;;;4999697;28;20518;-82
2022/08/01 00:58:28;;;;;;;1.83;1.70;;;;;;;;;;5004889;28;20435;-77
2022/08/01 01:00:55;;;;;;;2.20;2.00;;;;;;;;;;5013127;28;20466;-78
2022/08/01 01:03:23;;;;;;;2.27;2.07;;;;;;;;;;5013263;28;20453;-80
2022/08/01 01:05:57;;;;;;;2.63;1.73;;;;;;;;;;4996103;28;20546;-83
2022/08/01 01:08:28;;;;;;;2.20;2.00;;;;;;;;;;5013862;28;20439;-80
2022/08/01 01:10:57;;;;;;;2.87;2.10;;;;;;;;;;5014221;28;20802;-78
2022/08/01 01:13:32;;;;;;;2.33;2.10;;;;;;;;;;4998013;28;20940;-76
2022/08/01 01:16:00;;;;;;;2.90;2.10;;;;;;;;;;5009135;28;20458;-85
2022/08/01 01:18:32;;;;;;;2.90;2.33;;;;;;;;;;4982296;28;20788;-78
2022/08/01 01:21:02;;;;;;;2.87;2.20;;;;;;;;;;5005807;28;20777;-77
2022/08/01 01:23:37;;;;;;;2.73;2.53;;;;;;;;;;5013062;28;20447;-82
2022/08/01 01:26:17;;;;;;;3.60;2.80;;;;;;;;;;5012713;28;20477;-85
2022/08/01 01:28:54;;;;;;;3.20;2.40;;;;;;;;;;5013361;28;20794;-81
2022/08/01 01:31:22;;;;;;;4.00;2.57;;;;;;;;;;5013232;28;20446;-76
2022/08/01 01:33:51;;;;;;;4.80;2.43;;;;;;;;;;4996809;28;20486;-78
2022/08/01 01:36:19;;;;;;;2.90;2.33;;;;;;;;;;5015106;28;21063;-75
2022/08/01 01:38:47;;;;;;;2.90;2.40;;;;;;;;;;5004703;28;21003;-84
2022/08/01 01:41:15;;;;;;;3.53;2.47;;;;;;;;;;4981048;28;20446;-80
2022/08/01 01:43:43;;;;;;;4.43;2.43;;;;;;;;;;5008391;28;20827;-78
2022/08/01 01:46:12;;;;;;;6.90;2.73;;;;;;;;;;5012489;28;20469;-79
2022/08/01 01:48:40;;;;;;;4.07;2.93;;;;;;;;;;5012808;28;20796;-81
2022/08/01 01:51:08;;;;;;;3.03;2.17;;;;;;;;;;5012721;28;20439;-82
2022/08/01 01:53:36;;;;;;;2.33;2.10;;;;;;;;;;5012754;28;20441;-79
2022/08/01 01:56:04;;;;;;;3.67;2.83;;;;;;;;;;5013741;28;20502;-78
2022/08/01 01:58:33;;;;;;;4.40;2.47;;;;;;;;;;5014689;28;20870;-78
2022/08/01 02:01:01;;;;;;;3.50;2.07;;;;;;;;;;4983760;28;22117;-80
2022/08/01 02:03:32;;;;;;;3.17;2.43;;;;;;;;;;4979172;28;20441;-76
2022/08/01 02:06:00;;;;;;;5.30;2.40;;;;;;;;;;4974300;28;20464;-77
2022/08/01 02:08:28;;;;;;;2.97;2.40;;;;;;;;;;4973262;28;20982;-76
2022/08/01 02:13:38;;;;;;;3.00;2.40;;;;;;;;;;4973387;28;20577;-76
2022/08/01 02:16:06;;;;;;;2.60;2.40;;;;;;;;;;4972966;28;20829;-78
2022/08/01 02:18:35;;;;;;;3.33;2.37;;;;;;;;;;4973652;28;20468;-77
2022/08/01 02:21:04;;;;;;;4.07;2.60;;;;;;;;;;4975778;28;20805;-80
2022/08/01 02:23:33;;;;;;;3.73;2.93;;;;;;;;;;4977897;28;20443;-78
2022/08/01 02:26:02;;;;;;;2.90;2.40;;;;;;;;;;4977039;28;20468;-78
2022/08/01 02:28:31;;;;;;;2.93;2.20;;;;;;;;;;4987921;28;20451;-79
2022/08/01 02:31:02;;;;;;;2.63;2.43;;;;;;;;;;4991936;28;20826;-78
2022/08/01 02:33:31;;;;;;;6.43;2.93;;;;;;;;;;4991281;28;20456;-79
2022/08/01 02:36:01;;;;;;;2.63;2.37;;;;;;;;;;4992714;28;20496;-77
2022/08/01 02:38:30;;;;;;;2.77;2.57;;;;;;;;;;4991576;28;20444;-79
2022/08/01 02:40:59;;;;;;;3.10;2.57;;;;;;;;;;4994432;28;20463;-76
2022/08/01 02:43:28;;;;;;;3.20;2.90;;;;;;;;;;4994414;28;20534;-78
2022/08/01 02:45:57;;;;;;;3.80;3.30;;;;;;;;;;4979871;28;20453;-76
2022/08/01 02:48:27;;;;;;;3.23;2.93;;;;;;;;;;4978584;28;20433;-79
2022/08/01 02:50:54;;;;;;;5.10;3.30;;;;;;;;;;4971469;28;20480;-78
2022/08/01 02:53:24;;;;;;;3.83;2.77;;;;;;;;;;4972865;28;20445;-79
2022/08/01 02:55:52;;;;;;;6.40;3.30;;;;;;;;;;4974783;28;20492;-78
2022/08/01 02:58:23;;;;;;;5.83;3.13;;;;;;;;;;4973170;28;20447;-75
2022/08/01 03:00:50;;;;;;;3.80;3.40;;;;;;;;;;4985369;28;20482;-79
2022/08/01 03:03:19;;;;;;;3.57;3.27;;;;;;;;;;4994161;28;20444;-78
2022/08/01 03:05:48;;;;;;;5.30;2.90;;;;;;;;;;4993972;28;20890;-77
2022/08/01 03:08:17;;;;;;;5.97;3.50;;;;;;;;;;4997260;28;20435;-78
2022/08/01 03:10:46;;;;;;;4.90;2.80;;;;;;;;;;4998356;28;20496;-82
2022/08/01 03:13:14;;;;;;;4.67;3.87;;;;;;;;;;4991309;28;20941;-83
2022/08/01 03:15:43;;;;;;;3.43;3.13;;;;;;;;;;4974227;28;21026;-81
2022/08/01 03:18:12;;;;;;;4.13;3.53;;;;;;;;;;4991869;28;20458;-77
2022/08/01 03:20:39;;;;;;;4.73;3.30;;;;;;;;;;4992226;28;20466;-83
2022/08/01 03:23:08;;;;;;;4.00;3.50;;;;;;;;;;4994730;28;20449;-80
2022/08/01 03:25:37;;;;;;;5.03;3.23;;;;;;;;;;5013524;28;20456;-82
2022/08/01 03:28:06;;;;;;;3.80;3.20;;;;;;;;;;5013481;28;20463;-77
2022/08/01 03:30:35;;;;;;;5.57;3.30;;;;;;;;;;4981139;28;20443;-77
2022/08/01 03:33:03;;;;;;;4.23;3.40;;;;;;;;;;4997779;28;20522;-83
2022/08/01 03:35:32;;;;;;;4.40;3.73;;;;;;;;;;4993149;28;20478;-78
2022/08/01 03:38:01;;;;;;;3.67;3.37;;;;;;;;;;5011056;28;20467;-79
2022/08/01 03:40:32;;;;;;;4.33;3.47;;;;;;;;;;5011343;28;20451;-79
2022/08/01 03:43:01;;;;;;;4.30;3.70;;;;;;;;;;4994375;28;20794;-76
2022/08/01 03:45:32;;;;;;;5.10;3.70;;;;;;;;;;4993667;28;20528;-81
2022/08/01 03:48:01;;;;;;;5.53;4.03;;;;;;;;;;4995770;28;20555;-77
2022/08/01 03:50:30;;;;;;;5.10;3.77;;;;;;;;;;4994912;28;20952;-74
2022/08/01 03:52:59;;;;;;;5.40;4.30;;;;;;;;;;4997432;28;20448;-79
2022/08/01 03:55:27;;;;;;;6.30;4.20;;;;;;;;;;4996823;28;20502;-80
2022/08/01 03:57:54;;;;;;;4.80;3.63;;;;;;;;;;4973469;28;20460;-81
2022/08/01 04:00:21;;;;;;;7.47;4.90;;;;;;;;;;4990892;28;20472;-78
2022/08/01 04:02:50;;;;;;;6.70;3.77;;;;;;;;;;4991447;28;20447;-83
2022/08/01 04:05:18;;;;;;;4.10;3.70;;;;;;;;;;4995460;28;20439;-81
2022/08/01 04:07:47;;;;;;;4.40;3.93;;;;;;;;;;5001647;28;20470;-80
2022/08/01 04:10:15;;;;;;;5.17;4.53;;;;;;;;;;4999536;28;20496;-76
2022/08/01 04:12:42;;;;;;;5.40;4.27;;;;;;;;;;5015770;28;21052;-81
2022/08/01 04:15:10;;;;;;;7.80;5.23;;;;;;;;;;4990815;28;20558;-76
2022/08/01 04:17:37;;;;;;;8.47;5.63;;;;;;;;;;4997530;28;20455;-77
2022/08/01 04:20:06;;;;;;;10.23;4.90;;;;;;;;;;5013501;28;20442;-79
2022/08/01 04:22:33;;;;;;;7.10;5.00;;;;;;;;;;5014059;28;20449;-80
2022/08/01 04:25:02;;;;;;;5.90;5.30;;;;;;;;;;5014289;28;20447;-84
2022/08/01 04:27:31;;;;;;;5.93;5.13;;;;;;;;;;5014397;28;20463;-80
2022/08/01 04:29:59;;;;;;;6.07;4.87;;;;;;;;;;5014325;28;20459;-77
2022/08/01 04:32:27;;;;;;;8.83;4.70;;;;;;;;;;5016401;28;20434;-78
2022/08/01 04:34:56;;;;;;;5.87;4.60;;;;;;;;;;5014958;28;20994;-78
2022/08/01 04:37:26;;;;;;;6.43;4.93;;;;;;;;;;5000216;28;20465;-81
2022/08/01 04:39:54;;;;;;;5.73;5.10;;;;;;;;;;4999582;28;20428;-84
2022/08/01 04:42:21;;;;;;;6.20;4.97;;;;;;;;;;4993628;28;20447;-79
2022/08/01 04:44:48;;;;;;;6.80;5.50;;;;;;;;;;4994137;28;20447;-78
2022/08/01 04:47:16;;;;;;;7.93;5.13;;;;;;;;;;4994378;28;20464;-75
2022/08/01 04:49:45;;;;;;;7.93;6.60;;;;;;;;;;4994495;28;20451;-81
2022/08/01 04:52:13;;;;;;;6.67;5.50;;;;;;;;;;5000819;28;20800;-77
2022/08/01 04:54:41;;;;;;;7.27;6.23;;;;;;;;;;5015569;28;20444;-81
2022/08/01 04:57:09;;;;;;;6.47;5.50;;;;;;;;;;5015810;28;20563;-78
2022/08/01 04:59:41;;;;;;;6.60;5.60;;;;;;;;;;4999698;28;20459;-77
2022/08/01 05:02:09;;;;;;;5.73;5.23;;;;;;;;;;4990678;28;20510;-77
2022/08/01 05:04:36;;;;;;;7.30;6.27;;;;;;;;;;4993246;28;20848;-79
2022/08/01 05:07:04;;;;;;;7.60;6.23;;;;;;;;;;4993365;28;20822;-76
2022/08/01 05:09:31;;;;;;;7.40;5.70;;;;;;;;;;4994068;28;20447;-81
2022/08/01 05:12:01;;;;;;;9.03;5.73;;;;;;;;;;4994174;28;20451;-82
2022/08/01 05:14:31;;;;;;;8.10;6.37;;;;;;;;;;4993441;28;20475;-79
2022/08/01 05:16:58;;;;;;;6.40;5.77;;;;;;;;;;4995556;28;20522;-78
2022/08/01 05:19:26;;;;;;;8.53;7.27;;;;;;;;;;4995340;28;20448;-80
2022/08/01 05:21:53;;;;;;;8.03;6.47;;;;;;;;;;4997501;28;20460;-80
2022/08/01 05:24:20;;;;;;;7.97;6.50;;;;;;;;;;5001176;28;20438;-81
2022/08/01 05:26:48;;;;;;;8.00;5.73;;;;;;;;;;5012583;28;20565;-76
2022/08/01 05:29:17;;;;;;;6.67;5.97;;;;;;;;;;5012796;28;20442;-79
2022/08/01 05:31:44;;;;;;;9.10;6.77;;;;;;;;;;5013136;28;20959;-79
2022/08/01 05:34:11;;;;;;;7.30;6.23;;;;;;;;;;5013272;28;20457;-80
2022/08/01 05:36:39;;;;;;;6.87;6.17;;;;;;;;;;5012907;28;20593;-81
2022/08/01 05:39:06;;;;;;;8.63;7.20;;;;;;;;;;5015173;28;20522;-79
2022/08/01 05:41:33;;;;;;;7.37;6.67;;;;;;;;;;5014216;28;20879;-78
2022/08/01 05:44:00;;;;;;;9.53;7.23;;;;;;;;;;4999417;28;20435;-78
2022/08/01 05:46:30;;;;;;;14.50;7.93;;;;;;;;;;4988484;28;20472;-77
2022/08/01 05:48:58;;;;;;;8.53;7.73;;;;;;;;;;4991990;28;20513;-80
2022/08/01 05:51:25;;;;;;;12.03;7.67;;;;;;;;;;4992078;28;20797;-77
2022/08/01 05:53:52;;;;;;;9.70;7.63;;;;;;;;;;4993094;28;20451;-77
2022/08/01 05:56:20;;;;;;;10.07;8.20;;;;;;;;;;4992831;28;20570;-79
2022/08/01 05:58:47;;;;;;;12.43;8.73;;;;;;;;;;4975668;28;20557;-78
2022/08/01 06:01:14;;;;;;;10.30;8.53;;;;;;;;;;4996314;28;20462;-81
2022/08/01 06:03:43;;;;;;;13.30;10.60;;;;;;;;;;4998493;28;20912;-78
2022/08/01 06:06:10;;;;;;;13.80;10.13;;;;;;;;;;4992109;28;20463;-77
2022/08/01 06:08:38;;;;;;;14.73;11.00;;;;;;;;;;4992697;28;20543;-79
2022/08/01 06:11:05;;;;;;;14.63;11.13;;;;;;;;;;4992789;28;20439;-82
2022/08/01 06:13:32;;;;;;;16.03;10.23;;;;;;;;;;4993064;28;20868;-77
2022/08/01 06:15:59;;;;;;;11.40;9.67;;;;;;;;;;4997097;28;20505;-80
2022/08/01 06:18:27;;;;;;;9.90;8.90;;;;;;;;;;5014508;28;20447;-76
2022/08/01 06:20:55;;;;;;;10.97;9.87;;;;;;;;;;5012998;28;20542;-81
2022/08/01 06:23:22;;;;;;;11.97;8.80;;;;;;;;;;4999837;28;20444;-78
2022/08/01 06:25:50;;;;;;;10.57;8.70;;;;;;;;;;4998018;28;20527;-80
2022/08/01 06:28:17;;;;;;;11.50;10.00;;;;;;;;;;4991347;28;20436;-78
2022/08/01 06:30:44;;;;;;;12.17;9.33;;;;;;;;;;4991755;28;20455;-79
2022/08/01 06:33:11;;;;;;;10.43;8.60;;;;;;;;;;4992487;28;20448;-76
2022/08/01 06:35:39;;;;;;;10.13;8.60;;;;;;;;;;4992552;28;20566;-78
2022/08/01 06:38:07;;;;;;;13.90;9.30;;;;;;;;;;4991974;28;20451;-78
2022/08/01 06:40:34;;;;;;;14.67;9.97;;;;;;;;;;4994121;28;20806;-77
2022/08/01 06:43:02;;;;;;;11.03;9.93;;;;;;;;;;4994262;28;20446;-78
2022/08/01 06:45:29;;;;;;;10.13;8.87;;;;;;;;;;4996874;28;20808;-78
2022/08/01 06:47:56;;;;;;;9.20;8.30;;;;;;;;;;4997730;28;20516;-74
2022/08/01 06:50:23;;;;;;;9.60;8.47;;;;;;;;;;4992942;28;20444;-77
2022/08/01 06:52:51;;;;;;;10.03;8.53;;;;;;;;;;4991751;28;20460;-79
2022/08/01 06:55:20;;;;;;;10.77;8.47;;;;;;;;;;4991951;28;20526;-80
2022/08/01 06:57:48;;;;;;;9.37;8.40;;;;;;;;;;4992726;28;20467;-81
2022/08/01 07:00:16;;;;;;;9.20;8.30;;;;;;;;;;4974628;28;20472;-77
2022/08/01 07:02:44;;;;;;;8.83;7.63;;;;;;;;;;4992484;28;20440;-81
2022/08/01 07:05:11;;;;;;;11.30;8.40;;;;;;;;;;4994034;28;20467;-78
2022/08/01 07:07:38;;;;;;;8.73;7.87;;;;;;;;;;4996022;28;20539;-80
2022/08/01 07:10:05;;;;;;;8.80;7.90;;;;;;;;;;4997419;28;20455;-80
2022/08/01 07:12:36;;;;;;;9.90;8.40;;;;;;;;;;5006409;28;20518;-79
2022/08/01 07:15:03;;;;;;;8.60;7.10;;;;;;;;;;5011391;28;20450;-80
2022/08/01 07:17:30;;;;;;;10.57;9.03;;;;;;;;;;5011418;28;20585;-75
2022/08/01 07:19:58;;;;;;;9.37;8.50;;;;;;;;;;5011497;28;20501;-76
2022/08/01 07:22:25;;;;;;;8.50;7.70;;;;;;;;;;5011410;28;20800;-77
2022/08/01 07:24:52;;;;;;;9.83;8.93;;;;;;;;;;5000161;28;20486;-76
2022/08/01 07:27:19;;;;;;;9.83;8.20;;;;;;;;;;4997860;28;21041;-84
2022/08/01 07:29:48;;;;;;;8.97;7.90;;;;;;;;;;4992925;28;20454;-82
2022/08/01 07:32:15;;;;;;;9.40;8.37;;;;;;;;;;4997985;28;20539;-74
2022/08/01 07:34:42;;;;;;;9.23;8.33;;;;;;;;;;4996793;28;20546;-76
2022/08/01 07:37:09;;;;;;;9.97;8.40;;;;;;;;;;4996903;28;20940;-76
2022/08/01 07:39:36;;;;;;;8.67;7.87;;;;;;;;;;4999330;28;20931;-80
2022/08/01 07:42:04;;;;;;;9.20;8.30;;;;;;;;;;5017925;28;20530;-83
2022/08/01 07:44:31;;;;;;;11.47;10.07;;;;;;;;;;5017302;28;20482;-77
2022/08/01 07:46:59;;;;;;;9.47;8.40;;;;;;;;;;5007942;28;20536;-76
2022/08/01 07:49:27;;;;;;;8.30;7.50;;;;;;;;;;5001047;28;20423;-82
2022/08/01 07:51:54;;;;;;;9.10;8.30;;;;;;;;;;5009525;28;20442;-80
2022/08/01 07:54:23;;;;;;;8.20;7.40;;;;;;;;;;5014901;28;20501;-76
2022/08/01 07:56:50;;;;;;;11.23;8.77;;;;;;;;;;5014864;28;20524;-81
2022/08/01 07:59:22;;;;;;;8.43;7.73;;;;;;;;;;5015122;28;20449;-81
2022/08/01 08:01:50;;;;;;;10.03;8.00;;;;;;;;;;5014785;28;20443;-77
2022/08/01 08:04:18;;;;;;;8.60;7.00;;;;;;;;;;5015910;28;20466;-77
2022/08/01 08:06:47;;;;;;;8.07;7.37;;;;;;;;;;5016827;28;20469;-80
2022/08/01 08:09:15;;;;;;;8.97;6.87;;;;;;;;;;5009002;28;20439;-81
2022/08/01 08:11:43;;;;;;;7.60;6.80;;;;;;;;;;4991037;28;20439;-81
2022/08/01 08:14:10;;;;;;;7.27;6.53;;;;;;;;;;5005526;28;20458;-79
2022/08/01 08:16:37;;;;;;;6.63;5.70;;;;;;;;;;5014059;28;20517;-78
2022/08/01 08:19:05;;;;;;;7.33;6.70;;;;;;;;;;5014475;28;20446;-76
2022/08/01 08:21:33;;;;;;;7.00;6.27;;;;;;;;;;5014561;28;20445;-81
2022/08/01 08:26:41;;;;;;;9.17;6.70;;;;;;;;;;5014394;28;20494;-76
2022/08/01 08:29:09;;;;;;;7.57;6.77;;;;;;;;;;5016406;28;20486;-80
2022/08/01 08:31:36;;;;;;;7.70;6.90;;;;;;;;;;4994350;28;20435;-74
2022/08/01 08:34:03;;;;;;;9.97;6.20;;;;;;;;;;5017746;28;20491;-78
2022/08/01 08:36:30;;;;;;;7.77;6.90;;;;;;;;;;5011569;28;20587;-77
2022/08/01 08:39:00;;;;;;;8.53;7.30;;;;;;;;;;5000691;28;20440;-80
2022/08/01 08:41:27;;;;;;;7.37;6.57;;;;;;;;;;4999369;28;20479;-79
2022/08/01 08:43:56;;;;;;;8.33;7.00;;;;;;;;;;5000637;28;20543;-78
2022/08/01 08:46:25;;;;;;;8.50;7.40;;;;;;;;;;5000758;28;20545;-76
2022/08/01 08:48:52;;;;;;;7.03;6.33;;;;;;;;;;4983644;28;20468;-78
2022/08/01 08:51:20;;;;;;;7.03;6.43;;;;;;;;;;4999514;28;20444;-78
2022/08/01 08:53:48;;;;;;;6.50;5.90;;;;;;;;;;4998292;28;20531;-80
2022/08/01 08:56:16;;;;;;;7.97;7.07;;;;;;;;;;4999757;28;20491;-82
2022/08/01 08:58:45;;;;;;;6.90;6.30;;;;;;;;;;5003923;28;20958;-84
2022/08/01 09:01:13;;;;;;;7.40;6.70;;;;;;;;;;5013448;28;20493;-79
2022/08/01 09:03:40;;;;;;;6.20;5.70;;;;;;;;;;5014335;28;20435;-79
2022/08/01 09:06:07;;;;;;;6.10;5.50;;;;;;;;;;5014233;28;20467;-76
2022/08/01 09:08:35;;;;;;;8.40;6.23;;;;;;;;;;5014036;28;20438;-81
2022/08/01 09:11:02;;;;;;;6.57;5.67;;;;;;;;;;5014058;28;20451;-86
2022/08/01 09:13:31;;;;;;;7.93;5.47;;;;;;;;;;5015673;28;20450;-79
2022/08/01 09:15:59;;;;;;;6.83;5.93;;;;;;;;;;5013990;28;20471;-80
2022/08/01 09:18:27;;;;;;;5.87;5.13;;;;;;;;;;4999411;28;20442;-78
2022/08/01 09:21:08;;;;;;;6.07;5.27;;;;;;;;;;4990646;28;20432;-77
2022/08/01 09:23:38;;;;;;;6.73;5.47;;;;;;;;;;4993918;28;20443;-75
2022/08/01 09:26:06;;;;;;;5.77;5.27;;;;;;;;;;4976471;28;20455;-78
2022/08/01 09:28:34;;;;;;;5.40;5.00;;;;;;;;;;4993580;28;20476;-81
2022/08/01 09:31:06;;;;;;;6.73;5.70;;;;;;;;;;4994085;28;20452;-78
2022/08/01 09:33:48;;;;;;;6.17;5.53;;;;;;;;;;4983955;28;20964;-78
2022/08/01 09:36:15;;;;;;;7.13;6.27;;;;;;;;;;4995498;28;20484;-75
2022/08/01 09:38:42;;;;;;;6.47;5.87;;;;;;;;;;4995880;28;20440;-76
2022/08/01 09:41:11;;;;;;;6.80;5.63;;;;;;;;;;4999007;28;20839;-80
2022/08/01 09:43:40;;;;;;;5.87;5.03;;;;;;;;;;4996960;28;20964;-81
2022/08/01 09:46:11;;;;;;;5.63;5.00;;;;;;;;;;4992896;28;20463;-76
2022/08/01 09:48:39;;;;;;;5.33;4.83;;;;;;;;;;4993091;28;20575;-77
2022/08/01 09:51:07;;;;;;;4.50;4.10;;;;;;;;;;4976129;28;20526;-77
2022/08/01 09:53:43;;;;;;;7.10;4.90;;;;;;;;;;4993820;28;20805;-77
2022/08/01 09:56:11;;;;;;;5.40;5.00;;;;;;;;;;5006514;28;20797;-78
2022/08/01 09:58:51;;;;;;;5.80;4.90;;;;;;;;;;5014573;28;20450;-77
2022/08/01 10:01:21;;;;;;;5.30;4.80;;;;;;;;;;5009654;28;20543;-80
2022/08/01 10:03:48;;;;;;;5.23;4.83;;;;;;;;;;4998805;28;20447;-78
2022/08/01 10:06:21;;;;;;;5.47;5.03;;;;;;;;;;4996308;28;20464;-80
2022/08/01 10:08:49;;;;;;;6.13;5.53;;;;;;;;;;4975450;28;20942;-80
2022/08/01 10:11:16;;;;;;;5.97;5.47;;;;;;;;;;4992283;28;20810;-79
2022/08/01 10:13:43;;;;;;;5.50;5.00;;;;;;;;;;4992806;28;20440;-77
2022/08/01 10:16:14;;;;;;;6.90;4.90;;;;;;;;;;4993282;28;20809;-76
2022/08/01 10:18:42;;;;;;;5.07;4.60;;;;;;;;;;4993709;28;20917;-79
2022/08/01 10:21:09;;;;;;;4.23;3.93;;;;;;;;;;4995391;28;20448;-77
2022/08/01 10:23:37;;;;;;;4.40;4.00;;;;;;;;;;4995002;28;20522;-76
2022/08/01 10:26:05;;;;;;;4.30;3.90;;;;;;;;;;4998345;28;20546;-80
2022/08/01 10:28:36;;;;;;;4.83;4.10;;;;;;;;;;4979724;28;20522;-77
2022/08/01 10:31:03;;;;;;;5.30;4.43;;;;;;;;;;4992266;28;20452;-77
2022/08/01 10:33:32;;;;;;;6.40;4.80;;;;;;;;;;4992467;28;20850;-77
2022/08/01 10:35:59;;;;;;;6.00;5.40;;;;;;;;;;4992267;28;20455;-77
2022/08/01 10:38:29;;;;;;;6.13;5.40;;;;;;;;;;4992832;28;20542;-78
2022/08/01 10:40:57;;;;;;;6.27;5.77;;;;;;;;;;4985637;28;20443;-80
2022/08/01 10:43:24;;;;;;;6.50;5.90;;;;;;;;;;4996571;28;20940;-80
2022/08/01 10:45:52;;;;;;;5.20;4.73;;;;;;;;;;5013872;28;20443;-81
2022/08/01 10:48:22;;;;;;;5.67;5.13;;;;;;;;;;4998172;28;20527;-79
2022/08/01 10:50:52;;;;;;;5.30;4.80;;;;;;;;;;4997921;28;20539;-76
2022/08/01 10:53:21;;;;;;;5.30;4.40;;;;;;;;;;4991358;28;20944;-77
2022/08/01 10:55:51;;;;;;;5.40;4.90;;;;;;;;;;4974649;28;20454;-78
2022/08/01 10:58:22;;;;;;;4.83;4.43;;;;;;;;;;4991968;28;20491;-78
2022/08/01 11:00:50;;;;;;;3.90;3.60;;;;;;;;;;4970500;28;21014;-80
2022/08/01 11:03:33;;;;;;;4.50;4.10;;;;;;;;;;4972519;28;20459;-76
2022/08/01 11:06:03;;;;;;;3.97;3.67;;;;;;;;;;4993955;28;20455;-79
2022/08/01 11:08:31;;;;;;;4.30;4.00;;;;;;;;;;4991394;28;20514;-78
2022/08/01 11:11:01;;;;;;;6.90;5.27;;;;;;;;;;4988274;28;20456;-76
2022/08/01 11:13:43;;;;;;;4.27;3.97;;;;;;;;;;4989670;28;21009;-78
2022/08/01 11:16:25;;;;;;;4.87;4.00;;;;;;;;;;4991802;28;20476;-76
2022/08/01 11:18:53;;;;;;;6.03;4.00;;;;;;;;;;4977727;28;20825;-76
2022/08/01 11:21:23;;;;;;;5.07;4.67;;;;;;;;;;5011680;28;20530;-77
2022/08/01 11:23:53;;;;;;;4.50;4.03;;;;;;;;;;5013565;28;20819;-77
2022/08/01 11:26:20;;;;;;;4.07;3.77;;;;;;;;;;4986746;28;20455;-77
2022/08/01 11:29:08;;;;;;;6.77;3.70;;;;;;;;;;4998047;28;20985;-76
2022/08/01 11:31:35;;;;;;;5.13;3.80;;;;;;;;;;4978835;28;20816;-77
2022/08/01 11:34:02;;;;;;;5.80;4.87;;;;;;;;;;4992116;28;20886;-76
2022/08/01 11:36:31;;;;;;;5.33;4.83;;;;;;;;;;4991638;28;20999;-75
2022/08/01 11:39:13;;;;;;;4.97;4.57;;;;;;;;;;4992710;28;20454;-78
2022/08/01 11:41:41;;;;;;;5.23;4.73;;;;;;;;;;4977045;28;20448;-76
2022/08/01 11:44:09;;;;;;;5.00;4.60;;;;;;;;;;4994244;28;20447;-77
2022/08/01 11:46:51;;;;;;;4.83;4.40;;;;;;;;;;4993235;28;20471;-77
2022/08/01 11:49:34;;;;;;;5.13;4.63;;;;;;;;;;4981378;28;20542;-78
2022/08/01 11:52:04;;;;;;;4.70;4.30;;;;;;;;;;4982411;28;20472;-76
2022/08/01 11:54:33;;;;;;;4.00;3.70;;;;;;;;;;4993904;28;20478;-76
2022/08/01 11:57:01;;;;;;;5.63;4.40;;;;;;;;;;5011285;28;20501;-76
2022/08/01 11:59:28;;;;;;;4.70;4.30;;;;;;;;;;5010754;28;20700;-78
2022/08/01 12:01:56;;;;;;;6.47;4.20;;;;;;;;;;5011952;28;20537;-77
2022/08/01 12:04:23;;;;;;;4.90;4.50;;;;;;;;;;5011359;28;20458;-77
2022/08/01 12:06:50;;;;;;;4.43;4.03;;;;;;;;;;5014503;28;20465;-77
2022/08/01 12:09:20;;;;;;;3.50;3.20;;;;;;;;;;5015084;28;20443;-77
2022/08/01 12:11:47;;;;;;;3.47;3.17;;;;;;;;;;5001118;28;20430;-76
2022/08/01 12:14:19;;;;;;;3.00;2.70;;;;;;;;;;5000748;28;20430;-79
2022/08/01 12:16:50;;;;;;;4.90;2.70;;;;;;;;;;4992463;28;20456;-77
2022/08/01 12:19:20;;;;;;;3.40;3.10;;;;;;;;;;4993626;28;21110;-79
2022/08/01 12:21:47;;;;;;;3.60;3.30;;;;;;;;;;4994661;28;20547;-78
2022/08/01 12:24:14;;;;;;;3.90;3.50;;;;;;;;;;4994702;28;20436;-77
2022/08/01 12:26:43;;;;;;;3.43;3.23;;;;;;;;;;4998597;28;20516;-77
2022/08/01 12:29:10;;;;;;;3.30;3.10;;;;;;;;;;5016527;28;20999;-78
2022/08/01 12:31:39;;;;;;;6.13;3.27;;;;;;;;;;5016298;28;20509;-77
2022/08/01 12:34:21;;;;;;;3.80;3.43;;;;;;;;;;5002327;28;20808;-78
2022/08/01 12:36:48;;;;;;;3.27;3.03;;;;;;;;;;4999495;28;20539;-79
2022/08/01 12:39:15;;;;;;;4.10;3.73;;;;;;;;;;4997858;28;20781;-78
2022/08/01 12:41:45;;;;;;;4.40;3.50;;;;;;;;;;4994177;28;20440;-78
2022/08/01 12:44:16;;;;;;;4.07;3.40;;;;;;;;;;4994442;28;20450;-76
2022/08/01 12:46:43;;;;;;;4.77;4.30;;;;;;;;;;4994334;28;20555;-78
2022/08/01 12:49:11;;;;;;;4.33;3.73;;;;;;;;;;4999682;28;20549;-77
2022/08/01 12:51:38;;;;;;;3.30;3.00;;;;;;;;;;4997588;28;20472;-76
2022/08/01 12:54:09;;;;;;;6.03;3.57;;;;;;;;;;4997019;28;20431;-77
2022/08/01 12:56:37;;;;;;;5.20;2.80;;;;;;;;;;5010887;28;20455;-77
2022/08/01 12:59:19;;;;;;;4.57;3.20;;;;;;;;;;4995983;28;20552;-77
2022/08/01 13:01:48;;;;;;;3.50;3.20;;;;;;;;;;4998234;28;20807;-78
2022/08/01 13:04:15;;;;;;;4.23;2.97;;;;;;;;;;5013859;28;20952;-76
2022/08/01 13:06:42;;;;;;;2.60;2.40;;;;;;;;;;5013240;28;21388;-79
2022/08/01 13:09:12;;;;;;;3.60;3.30;;;;;;;;;;5015594;28;20558;-80
2022/08/01 13:11:39;;;;;;;4.03;3.20;;;;;;;;;;5015695;28;20536;-76
2022/08/01 13:14:06;;;;;;;4.00;3.43;;;;;;;;;;5002364;28;20439;-78
2022/08/01 13:16:34;;;;;;;3.30;3.00;;;;;;;;;;4999281;28;20463;-75
2022/08/01 13:19:02;;;;;;;4.37;3.97;;;;;;;;;;4993932;28;20479;-77
2022/08/01 13:21:30;;;;;;;2.80;2.50;;;;;;;;;;4993450;28;20448;-74
2022/08/01 13:24:02;;;;;;;3.13;2.27;;;;;;;;;;4976294;28;20534;-77
2022/08/01 13:26:44;;;;;;;3.90;2.57;;;;;;;;;;4976707;28;20459;-75
2022/08/01 13:29:12;;;;;;;2.30;2.10;;;;;;;;;;4983024;28;20457;-76
2022/08/01 13:31:39;;;;;;;2.47;2.00;;;;;;;;;;5015169;28;20534;-75
2022/08/01 13:34:08;;;;;;;2.00;1.80;;;;;;;;;;5015193;28;20530;-75
2022/08/01 13:36:35;;;;;;;3.30;2.23;;;;;;;;;;4999755;28;20459;-76
2022/08/01 13:41:44;;;;;;;2.07;1.90;;;;;;;;;;4991534;28;20452;-75
2022/08/01 13:44:11;;;;;;;2.40;2.20;;;;;;;;;;4993121;28;20450;-75
2022/08/01 13:46:39;;;;;;;2.30;2.10;;;;;;;;;;4975865;28;20485;-75
2022/08/01 13:49:08;;;;;;;2.83;2.00;;;;;;;;;;4976281;28;20488;-75
2022/08/01 13:51:36;;;;;;;1.97;1.77;;;;;;;;;;4981493;28;20494;-75
2022/08/01 13:54:03;;;;;;;2.10;1.90;;;;;;;;;;5014653;28;20442;-75
2022/08/01 13:56:30;;;;;;;4.17;1.97;;;;;;;;;;5014721;28;20984;-74
2022/08/01 13:58:58;;;;;;;1.90;1.73;;;;;;;;;;5000352;28;20496;-75
2022/08/01 14:01:25;;;;;;;1.90;1.70;;;;;;;;;;4998409;28;20464;-78
2022/08/01 14:03:53;;;;;;;5.00;1.70;;;;;;;;;;4975295;28;20435;-76
2022/08/01 14:06:22;;;;;;;2.70;1.90;;;;;;;;;;4975139;28;20460;-77
2022/08/01 14:08:49;;;;;;;2.80;2.40;;;;;;;;;;4992488;28;20543;-76
2022/08/01 14:11:17;;;;;;;3.13;1.80;;;;;;;;;;4976247;28;20450;-74
2022/08/01 14:13:45;;;;;;;3.57;2.00;;;;;;;;;;4996387;28;20543;-76
2022/08/01 14:16:12;;;;;;;2.93;2.40;;;;;;;;;;5014390;28;20467;-76
2022/08/01 14:18:40;;;;;;;3.47;2.00;;;;;;;;;;5014353;28;20475;-75
2022/08/01 14:21:07;;;;;;;4.90;2.80;;;;;;;;;;5000932;28;20423;-75
2022/08/01 14:23:36;;;;;;;2.90;2.17;;;;;;;;;;4998597;28;20535;-76
2022/08/01 14:26:03;;;;;;;2.70;2.27;;;;;;;;;;4992560;28;20961;-76
2022/08/01 14:28:30;;;;;;;3.10;2.17;;;;;;;;;;4992115;28;20968;-77
2022/08/01 14:30:58;;;;;;;3.23;1.97;;;;;;;;;;4992210;28;21011;-76
2022/08/01 14:33:25;;;;;;;2.60;2.40;;;;;;;;;;4992847;28;20484;-75
2022/08/01 14:35:53;;;;;;;2.43;1.80;;;;;;;;;;4991856;28;20817;-74
2022/08/01 14:38:20;;;;;;;2.83;2.17;;;;;;;;;;4994491;28;20977;-75
2022/08/01 14:40:51;;;;;;;1.97;1.77;;;;;;;;;;4994440;28;20554;-75
2022/08/01 14:43:18;;;;;;;3.23;2.07;;;;;;;;;;4996980;28;20498;-75
2022/08/01 14:45:49;;;;;;;2.60;1.83;;;;;;;;;;4998028;28;20428;-77
2022/08/01 14:48:16;;;;;;;1.73;1.63;;;;;;;;;;5009217;28;20474;-75
2022/08/01 14:50:43;;;;;;;1.70;1.60;;;;;;;;;;5011677;28;20493;-75
2022/08/01 14:53:10;;;;;;;2.67;2.00;;;;;;;;;;5011658;28;20834;-79
2022/08/01 14:55:38;;;;;;;1.97;1.87;;;;;;;;;;5012227;28;20446;-76
2022/08/01 14:58:06;;;;;;;1.67;1.47;;;;;;;;;;5011191;28;20478;-76